Time;durP1;ratioP1;P1;durP2;ratioP2;P2;SDS_P1;SDS_P2;PMS_P1;PMS_P2;Temp;Humidity;BMP_temperature;BMP_pressure;BME280_temperature;BME280_humidity;BME280_pressure;Samples;Min_cycle;Max_cycle;Signal;HPM_P1;HPM_P2
2023/05/26 00:01:59;;;;;;;7.43;5.80;;;;;;;14.71;59.63;99636.63;4958789;28;39972;-75
2023/05/26 00:04:27;;;;;;;6.53;5.50;;;;;;;14.68;59.83;99642.22;4974728;28;40688;-76
2023/05/26 00:06:55;;;;;;;6.27;5.27;;;;;;;14.64;59.71;99640.69;4975092;28;43867;-75
2023/05/26 00:09:23;;;;;;;8.67;6.40;;;;;;;14.59;60.71;99640.13;4992276;28;42360;-75
2023/05/26 00:11:53;;;;;;;7.83;6.20;;;;;;;14.55;60.42;99638.66;4959030;28;40035;-75
2023/05/26 00:14:20;;;;;;;8.30;5.57;;;;;;;14.51;60.53;99642.47;4974799;28;41650;-75
2023/05/26 00:16:48;;;;;;;9.33;6.27;;;;;;;14.49;60.47;99641.69;4958697;28;42011;-76
2023/05/26 00:19:17;;;;;;;11.03;6.50;;;;;;;14.46;60.92;99644.59;4958812;28;42268;-76
2023/05/26 00:21:45;;;;;;;8.40;6.03;;;;;;;14.42;60.25;99643.06;4974890;28;40177;-76
2023/05/26 00:24:12;;;;;;;6.60;5.30;;;;;;;14.39;61.13;99643.22;4959249;28;41850;-75
2023/05/26 00:26:40;;;;;;;8.77;6.40;;;;;;;14.33;61.28;99643.66;4959635;28;41555;-75
2023/05/26 00:29:09;;;;;;;8.10;5.90;;;;;;;14.28;60.67;99635.94;4993279;28;42305;-74
2023/05/26 00:31:37;;;;;;;8.60;6.03;;;;;;;14.24;61.84;99642.41;4975775;28;40641;-75
2023/05/26 00:34:04;;;;;;;8.63;6.37;;;;;;;14.19;61.50;99641.88;4975457;28;42728;-74
2023/05/26 00:36:32;;;;;;;7.70;5.60;;;;;;;14.18;61.12;99649.97;4975734;28;42895;-75
2023/05/26 00:39:00;;;;;;;9.87;6.83;;;;;;;14.13;63.47;99636.94;4975304;28;42363;-75
2023/05/26 00:41:28;;;;;;;8.27;6.70;;;;;;;14.08;62.57;99643.53;4959297;28;40444;-75
2023/05/26 00:43:55;;;;;;;7.97;6.23;;;;;;;14.06;62.73;99645.44;4975327;28;41810;-75
2023/05/26 00:46:25;;;;;;;7.50;6.23;;;;;;;14.01;62.13;99646.56;4974546;28;43265;-74
2023/05/26 00:48:52;;;;;;;9.00;6.73;;;;;;;13.98;62.34;99654.75;4958893;28;41361;-75
2023/05/26 00:51:20;;;;;;;9.67;6.73;;;;;;;13.92;62.71;99644.50;4974992;28;40246;-75
2023/05/26 00:53:48;;;;;;;8.63;6.40;;;;;;;13.91;62.68;99645.44;4959128;28;40637;-75
2023/05/26 00:56:16;;;;;;;8.63;6.77;;;;;;;13.87;62.57;99641.25;4959238;28;41660;-76
2023/05/26 00:58:45;;;;;;;10.60;6.33;;;;;;;13.84;62.95;99645.94;4957946;28;42368;-75
2023/05/26 01:01:13;;;;;;;8.13;6.57;;;;;;;13.78;62.94;99644.50;4973636;28;40805;-75
2023/05/26 01:03:44;;;;;;;11.70;7.10;;;;;;;13.76;63.93;99646.41;4974023;28;41500;-75
2023/05/26 01:06:12;;;;;;;10.27;7.17;;;;;;;13.73;63.78;99643.94;4971233;28;43686;-76
2023/05/26 01:08:40;;;;;;;7.93;6.20;;;;;;;13.70;63.74;99644.16;4990189;28;41116;-75
2023/05/26 01:11:14;;;;;;;10.70;6.33;;;;;;;13.67;62.91;99649.66;4958000;28;41049;-75
2023/05/26 01:13:48;;;;;;;10.47;7.37;;;;;;;13.62;62.92;99646.41;4957606;28;40747;-75
2023/05/26 01:16:18;;;;;;;7.43;5.97;;;;;;;13.59;62.76;99651.94;4974267;28;41450;-75
2023/05/26 01:18:56;;;;;;;8.37;6.03;;;;;;;13.56;62.67;99646.81;4973711;28;41571;-74
2023/05/26 01:21:29;;;;;;;8.53;5.77;;;;;;;13.39;62.71;99625.69;4971054;28;41656;-75
2023/05/26 01:24:13;;;;;;;9.07;6.53;;;;;;;13.46;63.29;99645.69;4973325;28;41771;-75
2023/05/26 01:26:56;;;;;;;10.53;6.73;;;;;;;13.42;63.48;99638.81;4971853;28;43737;-75
2023/05/26 01:29:29;;;;;;;10.47;6.97;;;;;;;13.32;63.94;99633.22;4958777;28;41223;-75
2023/05/26 01:32:07;;;;;;;9.17;6.77;;;;;;;13.35;64.00;99640.16;4972142;28;41011;-75
2023/05/26 01:34:34;;;;;;;8.07;6.50;;;;;;;13.31;63.51;99639.50;4991631;28;41958;-75
2023/05/26 01:37:02;;;;;;;8.17;5.80;;;;;;;13.26;63.38;99639.75;4958625;28;42802;-76
2023/05/26 01:39:31;;;;;;;9.70;7.17;;;;;;;13.24;64.21;99641.66;4974480;28;43315;-75
2023/05/26 01:42:08;;;;;;;9.07;7.43;;;;;;;13.19;65.14;99638.44;4974753;28;41915;-76
2023/05/26 01:44:44;;;;;;;8.67;5.97;;;;;;;13.17;64.79;99642.97;4958326;28;40785;-77
2023/05/26 01:47:14;;;;;;;7.13;5.97;;;;;;;13.07;64.96;99633.81;4974657;28;41540;-76
2023/05/26 01:49:46;;;;;;;9.93;6.67;;;;;;;12.93;65.14;99616.03;4974187;28;42150;-76
2023/05/26 01:52:17;;;;;;;8.77;6.43;;;;;;;13.08;65.76;99646.16;4972963;28;40945;-76
2023/05/26 01:54:49;;;;;;;10.10;7.50;;;;;;;12.98;65.48;99631.72;4973057;28;41547;-75
2023/05/26 01:57:17;;;;;;;8.30;6.67;;;;;;;13.02;66.21;99635.03;4970809;28;42775;-76
2023/05/26 01:59:47;;;;;;;12.90;7.93;;;;;;;12.98;67.13;99637.03;4973339;28;42023;-75
2023/05/26 02:02:14;;;;;;;12.17;7.67;;;;;;;12.97;67.29;99631.81;4973186;28;40034;-75
2023/05/26 02:04:42;;;;;;;12.23;7.57;;;;;;;12.94;67.49;99643.47;4973323;28;41668;-76
2023/05/26 02:07:10;;;;;;;9.90;6.70;;;;;;;12.92;66.70;99650.69;4957122;28;41837;-76
2023/05/26 02:09:37;;;;;;;10.33;6.90;;;;;;;12.91;66.88;99646.31;4972687;28;42472;-76
2023/05/26 02:12:06;;;;;;;8.77;6.77;;;;;;;12.88;66.47;99650.00;4973384;28;40700;-76
2023/05/26 02:14:35;;;;;;;10.37;6.93;;;;;;;12.85;66.37;99647.56;4973230;28;41746;-76
2023/05/26 02:17:04;;;;;;;8.53;6.43;;;;;;;12.83;66.96;99641.47;4957059;28;42947;-76
2023/05/26 02:19:32;;;;;;;10.97;7.63;;;;;;;12.81;67.04;99643.34;4972750;28;43509;-76
2023/05/26 02:22:00;;;;;;;7.00;6.30;;;;;;;12.77;66.59;99636.50;4973224;28;41469;-76
2023/05/26 02:24:28;;;;;;;7.93;6.30;;;;;;;12.75;66.59;99642.84;4973711;28;40669;-76
2023/05/26 02:26:55;;;;;;;8.90;6.37;;;;;;;12.73;66.40;99642.09;4991504;28;43578;-76
2023/05/26 02:29:23;;;;;;;9.37;6.70;;;;;;;12.71;66.18;99642.19;4973971;28;42285;-76
2023/05/26 02:31:51;;;;;;;7.80;6.10;;;;;;;12.69;66.56;99632.59;4974072;28;40970;-76
2023/05/26 02:34:20;;;;;;;9.10;6.43;;;;;;;12.57;66.82;99616.41;4974110;28;41585;-76
2023/05/26 02:36:49;;;;;;;9.63;7.17;;;;;;;12.62;67.27;99628.56;4990208;28;42579;-76
2023/05/26 02:39:17;;;;;;;8.77;6.77;;;;;;;12.61;67.47;99632.19;4973809;28;42469;-76
2023/05/26 02:41:45;;;;;;;9.77;6.63;;;;;;;12.55;67.75;99623.63;4971952;28;41006;-76
2023/05/26 02:44:13;;;;;;;8.57;6.63;;;;;;;12.55;66.97;99626.28;4956460;28;43242;-76
2023/05/26 02:46:41;;;;;;;9.10;6.10;;;;;;;12.53;66.87;99622.00;4956681;28;42565;-74
2023/05/26 02:49:09;;;;;;;9.67;6.40;;;;;;;12.36;67.44;99600.88;4972654;28;42246;-75
2023/05/26 02:51:38;;;;;;;8.37;7.07;;;;;;;12.44;67.60;99618.06;4956286;28;41202;-75
2023/05/26 02:54:06;;;;;;;9.23;6.87;;;;;;;12.44;67.68;99618.06;4972731;28;40732;-75
2023/05/26 02:56:33;;;;;;;8.07;6.00;;;;;;;12.37;67.91;99606.06;4972481;28;42668;-75
2023/05/26 02:59:01;;;;;;;8.47;6.60;;;;;;;12.43;67.70;99626.13;4972457;28;43027;-75
2023/05/26 03:01:29;;;;;;;10.37;6.23;;;;;;;12.40;68.37;99627.16;4956898;28;40927;-75
2023/05/26 03:03:57;;;;;;;8.07;6.60;;;;;;;12.37;68.72;99616.69;4972495;28;40638;-75
2023/05/26 03:06:25;;;;;;;11.37;8.20;;;;;;;12.23;68.02;99611.34;4956436;28;41952;-74
2023/05/26 03:08:54;;;;;;;7.53;6.37;;;;;;;12.33;68.45;99623.16;4990234;28;42320;-75
2023/05/26 03:11:22;;;;;;;9.40;6.30;;;;;;;12.33;68.59;99623.16;4975982;28;40665;-75
2023/05/26 03:13:49;;;;;;;7.57;5.90;;;;;;;12.32;68.37;99629.41;4959395;28;42141;-75
2023/05/26 03:16:19;;;;;;;10.13;6.63;;;;;;;12.32;68.38;99632.06;4959816;28;42878;-75
2023/05/26 03:18:46;;;;;;;7.80;5.70;;;;;;;12.30;68.37;99633.94;4959625;28;41795;-75
2023/05/26 03:21:16;;;;;;;9.97;6.70;;;;;;;12.29;69.04;99629.56;4959487;28;41135;-74
2023/05/26 03:23:43;;;;;;;11.13;6.80;;;;;;;12.28;69.09;99627.84;4976066;28;41861;-75
2023/05/26 03:26:13;;;;;;;6.90;5.93;;;;;;;12.24;68.38;99631.63;4960522;28;41814;-75
2023/05/26 03:28:41;;;;;;;6.73;6.03;;;;;;;12.27;68.13;99638.56;4976601;28;42338;-74
2023/05/26 03:31:08;;;;;;;8.47;5.97;;;;;;;12.24;68.25;99640.44;4976579;28;41053;-75
2023/05/26 03:33:36;;;;;;;6.63;5.73;;;;;;;12.27;68.57;99649.19;4976300;28;42510;-75
2023/05/26 03:36:05;;;;;;;9.70;7.17;;;;;;;12.25;69.19;99636.00;4976474;28;42736;-75
2023/05/26 03:38:33;;;;;;;11.63;5.90;;;;;;;12.19;68.71;99628.38;4960393;28;42676;-75
2023/05/26 03:41:03;;;;;;;8.67;6.87;;;;;;;12.27;68.55;99644.75;4960329;28;40888;-75
2023/05/26 03:43:34;;;;;;;7.97;5.80;;;;;;;12.29;68.26;99647.31;4960236;28;40643;-75
2023/05/26 03:46:03;;;;;;;8.70;6.27;;;;;;;12.23;68.35;99637.91;4960024;28;42206;-75
2023/05/26 03:48:30;;;;;;;7.53;5.40;;;;;;;12.32;68.33;99645.34;4960033;28;41322;-75
2023/05/26 03:50:58;;;;;;;8.07;5.80;;;;;;;12.35;68.56;99646.97;4976048;28;41018;-75
2023/05/26 03:53:27;;;;;;;7.50;6.23;;;;;;;12.36;68.57;99652.19;4974561;28;42500;-75
2023/05/26 03:55:56;;;;;;;7.27;5.80;;;;;;;12.36;68.65;99654.84;4958825;28;41345;-75
2023/05/26 03:58:24;;;;;;;9.50;6.67;;;;;;;12.43;68.63;99650.03;4958916;28;42323;-75
2023/05/26 04:00:53;;;;;;;9.60;6.67;;;;;;;12.46;69.25;99648.06;4992600;28;41126;-75
2023/05/26 04:03:21;;;;;;;13.23;7.23;;;;;;;12.50;69.74;99644.28;4975124;28;42248;-75
2023/05/26 04:05:49;;;;;;;10.67;6.67;;;;;;;12.49;69.81;99634.59;4974980;28;43683;-75
2023/05/26 04:08:17;;;;;;;9.17;6.77;;;;;;;12.62;69.35;99647.16;4974857;28;42237;-75
2023/05/26 04:10:45;;;;;;;7.20;5.77;;;;;;;12.70;68.68;99650.25;4974881;28;39597;-75
2023/05/26 04:13:13;;;;;;;11.57;7.37;;;;;;;12.76;68.99;99639.25;4974908;28;41707;-75
2023/05/26 04:15:42;;;;;;;9.70;6.33;;;;;;;12.83;68.33;99651.25;4991080;28;42446;-75
2023/05/26 04:18:11;;;;;;;8.27;6.83;;;;;;;12.88;68.16;99650.00;4958613;28;42603;-75
2023/05/26 04:20:39;;;;;;;9.13;6.10;;;;;;;12.92;67.96;99646.22;4957445;28;40651;-75
2023/05/26 04:23:07;;;;;;;14.43;7.27;;;;;;;13.02;68.10;99651.84;4974915;28;40837;-75
2023/05/26 04:25:34;;;;;;;9.30;5.87;;;;;;;13.09;67.81;99649.69;4959373;28;42899;-74
2023/05/26 04:28:10;;;;;;;10.17;6.47;;;;;;;13.16;67.88;99654.56;4959338;28;41390;-75
2023/05/26 04:30:43;;;;;;;11.53;6.73;;;;;;;13.21;67.93;99647.19;4959402;28;39928;-75
2023/05/26 04:33:20;;;;;;;7.07;5.83;;;;;;;13.33;67.26;99658.03;4991490;28;40754;-74
2023/05/26 04:36:17;;;;;;;9.33;6.17;;;;;;;13.38;67.07;99661.25;4939947;28;42195;-75
2023/05/26 04:38:47;;;;;;;11.03;6.40;;;;;;;13.28;66.54;99621.91;4973886;28;43268;-75
2023/05/26 04:41:16;;;;;;;10.27;6.67;;;;;;;13.56;66.55;99662.78;4959120;28;39858;-75
2023/05/26 04:43:44;;;;;;;8.63;6.30;;;;;;;13.56;66.37;99652.13;4975280;28;42189;-75
2023/05/26 04:46:13;;;;;;;10.50;6.87;;;;;;;13.71;66.51;99666.31;4959207;28;41786;-75
2023/05/26 04:48:42;;;;;;;11.53;7.43;;;;;;;13.78;66.27;99673.81;4992710;28;42143;-75
2023/05/26 04:51:10;;;;;;;8.07;6.33;;;;;;;13.87;66.00;99661.72;4974881;28;41024;-74
2023/05/26 04:53:37;;;;;;;10.13;6.27;;;;;;;13.95;65.82;99670.09;4956667;28;41833;-76
2023/05/26 04:56:07;;;;;;;7.00;5.90;;;;;;;14.05;65.80;99662.38;4957995;28;41760;-75
2023/05/26 04:58:54;;;;;;;8.07;6.13;;;;;;;14.11;65.39;99667.28;4958165;28;41379;-75
2023/05/26 05:01:21;;;;;;;8.53;6.30;;;;;;;14.23;65.43;99672.69;4971473;28;41097;-75
2023/05/26 05:04:09;;;;;;;13.07;6.63;;;;;;;14.32;65.51;99669.44;4990421;28;40960;-75
2023/05/26 05:06:42;;;;;;;10.23;6.60;;;;;;;14.41;65.00;99675.16;4971110;28;43660;-75
2023/05/26 05:09:10;;;;;;;9.43;6.00;;;;;;;14.50;64.62;99675.41;4957736;28;41502;-76
2023/05/26 05:11:38;;;;;;;7.87;6.47;;;;;;;14.51;64.80;99658.44;4958065;28;40219;-75
2023/05/26 05:14:06;;;;;;;9.30;5.60;;;;;;;14.70;64.38;99677.63;4957585;28;40484;-76
2023/05/26 05:16:34;;;;;;;7.27;5.63;;;;;;;14.76;64.27;99662.16;4974075;28;44384;-75
2023/05/26 05:19:01;;;;;;;8.23;6.50;;;;;;;14.91;63.69;99687.81;4973941;28;43266;-75
2023/05/26 05:21:32;;;;;;;8.47;6.27;;;;;;;15.02;63.48;99685.28;4973813;28;40970;-75
2023/05/26 05:24:00;;;;;;;9.17;6.07;;;;;;;15.13;63.30;99680.06;4974442;28;42609;-75
2023/05/26 05:26:28;;;;;;;10.00;6.63;;;;;;;15.19;62.95;99687.66;4958706;28;43289;-76
2023/05/26 05:28:56;;;;;;;10.60;6.27;;;;;;;15.30;63.02;99687.78;4958335;28;41450;-75
2023/05/26 05:31:49;;;;;;;8.67;6.23;;;;;;;15.40;62.47;99698.66;4972184;28;41063;-76
2023/05/26 05:34:17;;;;;;;8.33;5.27;;;;;;;15.49;62.03;99683.81;4958539;28;41685;-75
2023/05/26 05:36:48;;;;;;;12.30;6.87;;;;;;;15.61;62.17;99693.69;4973884;28;43013;-75
2023/05/26 05:39:16;;;;;;;7.47;5.83;;;;;;;15.73;61.46;99703.50;4989830;28;42459;-75
2023/05/26 05:41:43;;;;;;;8.17;5.60;;;;;;;15.83;61.79;99699.22;4973654;28;41078;-75
2023/05/26 05:44:11;;;;;;;11.97;6.43;;;;;;;15.89;61.16;99690.78;4957468;28;41940;-76
2023/05/26 05:46:39;;;;;;;8.27;5.57;;;;;;;15.77;60.56;99662.28;4957315;28;42410;-75
2023/05/26 05:49:25;;;;;;;9.57;5.60;;;;;;;16.20;60.54;99702.78;4989036;28;42081;-75
2023/05/26 05:54:43;;;;;;;10.73;6.37;;;;;;;16.48;59.16;99717.69;4957179;28;40601;-75
2023/05/26 05:57:11;;;;;;;9.60;6.40;;;;;;;16.54;58.58;99722.59;4973372;28;42476;-75
2023/05/26 05:59:38;;;;;;;9.50;6.23;;;;;;;16.62;58.76;99719.34;4973634;28;42767;-76
2023/05/26 06:02:06;;;;;;;7.60;6.00;;;;;;;16.72;58.34;99725.75;4973786;28;41858;-76
2023/05/26 06:04:35;;;;;;;11.10;6.47;;;;;;;16.84;57.25;99731.06;4973303;28;40853;-76
2023/05/26 06:07:04;;;;;;;12.73;6.83;;;;;;;16.92;56.93;99735.00;4957020;28;43189;-77
2023/05/26 06:09:33;;;;;;;8.50;5.87;;;;;;;16.97;57.30;99735.50;4962545;28;41077;-84
2023/05/26 06:12:01;;;;;;;8.73;6.50;;;;;;;17.05;56.71;99730.44;4941522;28;40988;-85
2023/05/26 06:14:30;;;;;;;8.50;5.90;;;;;;;17.01;57.12;99726.28;4954216;28;41560;-88
2023/05/26 06:16:58;;;;;;;9.40;5.73;;;;;;;16.98;56.98;99705.94;4958040;28;41590;-84
2023/05/26 06:19:28;;;;;;;10.30;6.07;;;;;;;16.96;56.44;99670.41;4954736;28;41357;-85
2023/05/26 06:21:56;;;;;;;8.37;5.83;;;;;;;17.48;56.19;99733.38;4957552;28;39859;-76
2023/05/26 06:24:25;;;;;;;8.17;5.67;;;;;;;17.67;56.31;99733.69;4957462;28;40685;-80
2023/05/26 06:26:52;;;;;;;8.53;5.73;;;;;;;17.75;55.94;99725.06;4958588;28;42333;-86
2023/05/26 06:29:20;;;;;;;9.17;5.53;;;;;;;18.03;55.61;99740.69;4974326;28;42031;-81
2023/05/26 06:31:48;;;;;;;10.87;6.90;;;;;;;18.14;53.76;99746.03;4969923;28;40963;-79
2023/05/26 06:34:19;;;;;;;9.47;6.27;;;;;;;18.33;54.54;99749.91;4988751;28;40716;-80
2023/05/26 06:36:47;;;;;;;5.83;4.90;;;;;;;18.49;54.84;99735.16;4958543;28;43140;-85
2023/05/26 06:39:15;;;;;;;8.27;5.47;;;;;;;18.59;53.17;99746.00;4974439;28;42508;-84
2023/05/26 06:41:45;;;;;;;10.10;6.73;;;;;;;18.63;52.66;99760.91;4958796;28;40148;-79
2023/05/26 06:44:13;;;;;;;7.53;5.50;;;;;;;18.70;52.13;99751.34;4954894;28;41798;-81
2023/05/26 06:46:41;;;;;;;7.60;5.60;;;;;;;18.85;52.89;99758.16;4974680;28;41705;-83
2023/05/26 06:49:09;;;;;;;10.17;5.80;;;;;;;19.05;52.62;99767.22;4961485;28;42647;-85
2023/05/26 06:51:46;;;;;;;9.60;5.57;;;;;;;19.24;51.51;99774.63;4975907;28;41872;-81
2023/05/26 06:54:14;;;;;;;12.60;5.97;;;;;;;19.36;51.39;99773.59;4960130;28;40826;-80
2023/05/26 06:56:43;;;;;;;12.47;6.27;;;;;;;19.51;50.50;99775.03;4976569;28;42680;-80
2023/05/26 06:59:12;;;;;;;9.60;5.80;;;;;;;19.65;50.02;99781.91;4976385;28;43351;-79
2023/05/26 07:01:41;;;;;;;7.40;5.10;;;;;;;19.79;50.42;99781.56;4976887;28;40415;-79
2023/05/26 07:04:08;;;;;;;9.73;6.00;;;;;;;19.93;50.12;99769.63;4960314;28;41762;-83
2023/05/26 07:06:36;;;;;;;9.37;6.10;;;;;;;19.88;49.00;99769.19;4976539;28;42858;-78
2023/05/26 07:09:04;;;;;;;7.03;4.93;;;;;;;20.19;50.37;99789.72;4976106;28;42076;-80
2023/05/26 07:11:38;;;;;;;7.93;4.90;;;;;;;20.34;49.55;99780.31;4960834;28;40000;-83
2023/05/26 07:14:15;;;;;;;7.43;4.50;;;;;;;20.43;50.66;99759.84;4959659;28;40751;-80
2023/05/26 07:16:43;;;;;;;6.63;4.67;;;;;;;20.68;48.95;99793.50;4960463;28;41969;-81
2023/05/26 07:19:10;;;;;;;8.37;5.23;;;;;;;20.80;48.17;99787.00;4993409;28;43313;-79
2023/05/26 07:21:38;;;;;;;10.77;5.33;;;;;;;21.14;47.10;99801.81;4976738;28;40906;-80
2023/05/26 07:24:06;;;;;;;7.77;4.87;;;;;;;21.53;46.64;99809.94;4960177;28;40694;-80
2023/05/26 07:26:34;;;;;;;10.17;5.77;;;;;;;22.02;44.80;99816.16;4960461;28;42865;-78
2023/05/26 07:29:02;;;;;;;7.03;5.03;;;;;;;22.55;44.11;99825.38;4976272;28;42471;-78
2023/05/26 07:31:31;;;;;;;7.53;4.83;;;;;;;23.48;43.08;99828.84;4960417;28;40440;-78
2023/05/26 07:33:59;;;;;;;8.60;5.63;;;;;;;24.34;40.37;99836.19;4976610;28;42748;-80
2023/05/26 07:36:27;;;;;;;6.73;4.77;;;;;;;25.05;39.32;99837.72;4993486;28;42802;-79
2023/05/26 07:38:54;;;;;;;5.97;4.87;;;;;;;25.21;39.96;99809.81;4992736;28;42701;-82
2023/05/26 07:41:22;;;;;;;7.00;5.10;;;;;;;25.46;38.40;99819.69;4960705;28;40694;-76
2023/05/26 07:43:50;;;;;;;7.77;4.47;;;;;;;25.53;38.42;99836.16;4993357;28;41851;-80
2023/05/26 07:46:18;;;;;;;6.70;4.57;;;;;;;25.24;39.22;99834.72;4976656;28;42733;-79
2023/05/26 07:48:48;;;;;;;8.50;4.67;;;;;;;24.84;38.85;99824.59;4976134;28;42534;-79
2023/05/26 07:51:15;;;;;;;6.07;4.50;;;;;;;25.34;38.65;99824.59;4959835;28;40210;-80
2023/05/26 07:53:43;;;;;;;8.47;5.50;;;;;;;26.04;36.40;99835.84;4974515;28;40751;-79
2023/05/26 07:56:11;;;;;;;6.87;4.27;;;;;;;27.26;35.68;99850.97;4959166;28;41682;-80
2023/05/26 07:58:39;;;;;;;8.03;4.67;;;;;;;28.61;33.78;99848.34;4975367;28;41290;-81
2023/05/26 08:01:07;;;;;;;6.97;4.77;;;;;;;29.62;31.38;99873.00;4975305;28;41732;-79
2023/05/26 08:03:36;;;;;;;6.20;4.37;;;;;;;29.88;31.61;99861.50;4958867;28;40788;-77
2023/05/26 08:06:05;;;;;;;7.27;4.53;;;;;;;29.87;31.76;99869.88;4958704;28;42221;-77
2023/05/26 08:08:33;;;;;;;6.53;4.43;;;;;;;29.93;32.07;99863.63;4974411;28;42506;-77
2023/05/26 08:11:00;;;;;;;6.27;4.77;;;;;;;30.08;31.59;99866.31;4971257;28;41646;-77
2023/05/26 08:13:31;;;;;;;6.50;4.30;;;;;;;30.76;31.72;99859.28;4954901;28;41729;-77
2023/05/26 08:16:02;;;;;;;6.57;4.60;;;;;;;32.11;29.61;99871.13;4971156;28;41596;-76
2023/05/26 08:18:30;;;;;;;6.73;4.33;;;;;;;33.09;28.17;99872.91;4970958;28;42355;-76
2023/05/26 08:20:58;;;;;;;5.33;4.20;;;;;;;33.62;26.85;99891.09;4989995;28;41114;-76
2023/05/26 08:23:46;;;;;;;4.40;4.00;;;;;;;33.75;26.26;99830.56;4974703;28;41094;-75
2023/05/26 08:26:14;;;;;;;6.47;4.03;;;;;;;33.97;26.01;99867.63;4975156;28;42039;-78
2023/05/26 08:28:42;;;;;;;5.20;4.63;;;;;;;33.71;26.24;99887.00;4992664;28;42263;-79
2023/05/26 08:31:10;;;;;;;6.93;4.33;;;;;;;33.41;27.15;99878.50;4992725;28;40577;-78
2023/05/26 08:33:38;;;;;;;5.87;4.53;;;;;;;33.40;26.86;99877.66;4975159;28;41819;-77
2023/05/26 08:36:06;;;;;;;4.87;4.13;;;;;;;33.60;26.50;99877.56;4975640;28;43525;-86
2023/05/26 08:38:36;;;;;;;5.90;3.60;;;;;;;34.60;26.49;99881.28;4959364;28;41733;-77
2023/05/26 08:41:06;;;;;;;7.25;4.38;;;;;;;35.19;25.15;99894.41;4955441;28;39698;-77
2023/05/26 08:43:43;;;;;;;9.68;4.07;;;;;;;35.50;25.10;99881.53;4955382;28;40720;-76
2023/05/26 08:46:12;;;;;;;4.90;3.63;;;;;;;35.01;25.43;99885.31;4955244;28;41693;-77
2023/05/26 08:48:41;;;;;;;4.53;4.10;;;;;;;33.64;26.07;99876.03;4955152;28;42680;-76
2023/05/26 08:51:10;;;;;;;7.63;4.23;;;;;;;32.82;26.89;99874.91;4958458;28;39795;-78
2023/05/26 08:53:40;;;;;;;6.07;4.27;;;;;;;32.14;27.90;99854.28;4972966;28;42039;-77
2023/05/26 08:56:08;;;;;;;5.70;4.40;;;;;;;31.54;29.05;99842.34;4973956;28;42548;-78
2023/05/26 08:58:38;;;;;;;7.07;4.73;;;;;;;30.84;29.79;99813.44;4974056;28;42302;-79
2023/05/26 09:01:05;;;;;;;5.90;3.60;;;;;;;30.71;30.81;99827.06;4991610;28;41668;-77
2023/05/26 09:03:33;;;;;;;5.70;4.30;;;;;;;30.65;30.48;99825.13;4991926;28;41709;-77
2023/05/26 09:06:01;;;;;;;10.10;5.17;;;;;;;30.32;31.22;99822.16;4991390;28;42763;-79
2023/05/26 09:08:29;;;;;;;5.80;3.87;;;;;;;30.23;32.48;99805.06;4973113;28;42690;-78
2023/05/26 09:10:58;;;;;;;5.80;3.63;;;;;;;30.21;31.91;99812.63;4973640;28;41072;-79
2023/05/26 09:13:26;;;;;;;6.57;4.27;;;;;;;30.08;32.16;99807.03;4973772;28;41728;-79
2023/05/26 09:15:54;;;;;;;7.70;4.20;;;;;;;30.18;32.02;99807.53;4957327;28;41422;-77
2023/05/26 09:18:22;;;;;;;6.83;4.40;;;;;;;30.42;31.88;99816.31;4990975;28;43560;-78
2023/05/26 09:20:51;;;;;;;4.60;3.90;;;;;;;30.27;30.22;99836.44;4973312;28;41120;-77
2023/05/26 09:23:22;;;;;;;6.77;4.20;;;;;;;30.19;29.96;99836.56;4973962;28;41587;-77
2023/05/26 09:25:52;;;;;;;6.50;4.17;;;;;;;30.09;30.94;99836.06;4988812;28;43460;-77
2023/05/26 09:28:24;;;;;;;5.63;4.43;;;;;;;30.50;29.67;99843.50;4974614;28;42155;-77
2023/05/26 09:30:51;;;;;;;6.13;4.27;;;;;;;31.16;29.77;99827.50;4941111;28;39949;-78
2023/05/26 09:33:20;;;;;;;8.27;4.30;;;;;;;31.69;27.98;99851.25;4971288;28;40956;-78
2023/05/26 09:35:49;;;;;;;4.83;3.60;;;;;;;31.94;29.74;99836.97;4988463;28;42727;-76
2023/05/26 09:38:19;;;;;;;5.47;4.77;;;;;;;32.13;28.90;99839.72;4957782;28;41197;-74
2023/05/26 09:40:48;;;;;;;6.20;3.57;;;;;;;32.20;28.26;99842.47;4991108;28;41873;-74
2023/05/26 09:43:19;;;;;;;6.80;4.03;;;;;;;32.47;27.16;99851.53;4973866;28;43259;-74
2023/05/26 09:45:48;;;;;;;5.37;4.00;;;;;;;33.18;27.79;99841.41;4957368;28;42902;-74
2023/05/26 09:48:16;;;;;;;6.27;4.37;;;;;;;34.24;25.25;99865.50;4957535;28;41693;-77
2023/05/26 09:50:44;;;;;;;8.00;4.47;;;;;;;35.24;24.09;99875.28;4973064;28;39849;-77
2023/05/26 09:53:12;;;;;;;5.27;4.00;;;;;;;36.24;23.30;99874.72;4972140;28;40515;-76
2023/05/26 09:55:42;;;;;;;5.90;4.97;;;;;;;36.14;23.95;99872.53;4956241;28;42447;-77
2023/05/26 09:58:11;;;;;;;7.37;3.90;;;;;;;35.28;23.75;99876.53;4956829;28;42308;-76
2023/05/26 10:00:41;;;;;;;6.57;3.60;;;;;;;34.44;25.96;99846.09;4956337;28;41524;-77
2023/05/26 10:06:50;;;;;;;5.87;4.17;;;;;;;32.69;26.18;99838.38;4990101;28;43780;-77
2023/05/26 10:09:22;;;;;;;6.63;4.30;;;;;;;32.41;27.05;99847.72;4969696;28;43069;-76
2023/05/26 10:11:52;;;;;;;7.63;4.47;;;;;;;32.53;27.72;99831.44;4972779;28;40744;-77
2023/05/26 10:14:21;;;;;;;5.73;4.10;;;;;;;32.95;27.01;99834.75;4956325;28;40765;-77
2023/05/26 10:16:49;;;;;;;7.10;4.37;;;;;;;33.58;26.92;99819.25;4972492;28;42788;-77
2023/05/26 10:19:17;;;;;;;5.73;4.07;;;;;;;34.62;25.64;99842.53;4973392;28;41609;-76
2023/05/26 10:21:55;;;;;;;7.37;4.37;;;;;;;35.06;23.48;99849.66;4959862;28;41412;-76
2023/05/26 10:24:30;;;;;;;6.53;4.20;;;;;;;34.96;23.58;99855.72;4960200;28;40515;-76
2023/05/26 10:27:05;;;;;;;5.23;3.87;;;;;;;35.25;25.16;99837.53;4994407;28;43568;-77
2023/05/26 10:29:53;;;;;;;6.03;4.00;;;;;;;35.35;24.03;99854.41;4970570;28;42448;-76
2023/05/26 10:32:43;;;;;;;5.93;4.00;;;;;;;34.98;23.22;99853.59;4957004;28;39978;-75
2023/05/26 10:35:29;;;;;;;8.53;4.60;;;;;;;34.76;23.96;99846.84;4968543;28;41720;-76
2023/05/26 10:38:13;;;;;;;5.63;4.03;;;;;;;34.51;25.32;99842.19;4993898;28;43338;-76
2023/05/26 10:40:44;;;;;;;6.23;4.43;;;;;;;34.11;24.96;99838.97;4976531;28;41464;-76
2023/05/26 10:43:14;;;;;;;9.83;4.40;;;;;;;33.52;25.27;99836.59;4976107;28;41953;-76
2023/05/26 10:45:46;;;;;;;6.67;3.77;;;;;;;33.03;27.38;99813.38;4975969;28;40930;-76
2023/05/26 10:48:14;;;;;;;6.13;3.80;;;;;;;32.69;27.28;99803.56;4977063;28;41757;-77
2023/05/26 10:51:10;;;;;;;5.43;4.33;;;;;;;32.35;28.27;99807.47;4993482;28;42406;-77
2023/05/26 10:53:44;;;;;;;7.37;3.93;;;;;;;32.32;27.90;99794.16;4991850;28;42332;-77
2023/05/26 10:56:13;;;;;;;6.53;3.83;;;;;;;32.53;27.91;99801.28;4959516;28;41253;-76
2023/05/26 10:58:46;;;;;;;6.07;3.93;;;;;;;32.56;28.57;99780.81;4992554;28;42486;-76
2023/05/26 11:01:16;;;;;;;5.87;4.50;;;;;;;32.57;28.11;99766.03;4959625;28;41568;-77
2023/05/26 11:03:46;;;;;;;6.20;4.03;;;;;;;32.92;27.44;99802.25;4993417;28;42248;-81
2023/05/26 11:06:15;;;;;;;5.67;4.47;;;;;;;32.83;27.28;99804.41;4973804;28;41985;-78
2023/05/26 11:08:49;;;;;;;7.40;4.27;;;;;;;32.64;27.46;99799.81;4973728;28;43053;-79
2023/05/26 11:11:28;;;;;;;6.33;3.60;;;;;;;32.39;26.67;99805.13;4970120;28;42450;-76
2023/05/26 11:14:04;;;;;;;4.97;3.80;;;;;;;32.35;29.87;99782.78;4975049;28;40851;-79
2023/05/26 11:19:27;;;;;;;6.63;4.10;;;;;;;32.27;27.52;99788.47;4957789;28;41762;-78
2023/05/26 11:21:56;;;;;;;6.67;4.13;;;;;;;32.11;28.07;99788.91;4972807;28;42372;-76
2023/05/26 11:24:26;;;;;;;5.43;3.83;;;;;;;32.04;29.52;99766.13;4959749;28;39829;-78
2023/05/26 11:26:54;;;;;;;6.10;4.03;;;;;;;31.99;29.04;99772.25;4993889;28;42271;-77
2023/05/26 11:29:23;;;;;;;5.67;3.77;;;;;;;32.02;29.19;99773.72;4992020;28;43768;-77
2023/05/26 11:31:51;;;;;;;4.83;4.07;;;;;;;32.13;28.74;99770.34;4976415;28;42270;-80
2023/05/26 11:34:18;;;;;;;5.67;3.97;;;;;;;32.13;27.57;99770.34;4971841;28;39839;-82
2023/05/26 11:36:48;;;;;;;6.17;4.33;;;;;;;32.16;28.37;99771.78;4941471;28;40779;-80
2023/05/26 11:39:16;;;;;;;5.47;4.00;;;;;;;32.17;28.17;99738.69;4956635;28;42454;-78
2023/05/26 11:41:46;;;;;;;6.23;4.03;;;;;;;32.70;27.56;99777.81;4941287;28;41425;-80
2023/05/26 11:44:15;;;;;;;6.73;4.07;;;;;;;33.14;27.77;99781.66;4960958;28;40665;-80
2023/05/26 11:46:44;;;;;;;4.77;3.63;;;;;;;33.60;26.66;99789.66;4960387;28;40726;-81
2023/05/26 11:49:13;;;;;;;8.93;4.40;;;;;;;34.73;25.77;99793.09;4976050;28;42812;-79
2023/05/26 11:51:47;;;;;;;6.77;4.17;;;;;;;35.91;25.03;99782.34;4977191;28;20329;-82
2023/05/26 11:54:15;;;;;;;6.93;3.90;;;;;;;36.99;21.88;99812.16;4974060;28;39618;-77